Pegu, Burma
Current Conditions -  °F | °C
As of 8:30 PM on Thursday 29 Jan 2015 (Local Time) from VYYY Reporting Station
Clear Clear  
Wind Chill: 75°   Ceiling: Unl
Heat Index: 75°   Visibility: 4mi
Dew Point: 64°   Wind: 3mph
Humidity: 69%   Direction: 170°S
Pressure: 29.94"   Gusts: NA
Location:  17.33°N, 96.5°E
Report Text: VYYY 291430Z 17003KT 7000 NSC 24/18 Q1014 NOSIG
Loading
Personal Weather Stations






























Interactive Weather Map New forecast layout! Learn more

10-Day Weather Forecast

Advertisements
Track Severe Weather on mobile